sensor_id;sensor_type;location;lat;lon;timestamp;pressure;altitude;pressure_sealevel;temperature;humidity
11413;BME280;5762;43.256;26.960;2022-09-27T00:01:07;98593.74;;;19.64;100.00
11413;BME280;5762;43.256;26.960;2022-09-27T00:03:36;98595.72;;;19.67;100.00
11413;BME280;5762;43.256;26.960;2022-09-27T00:08:35;98609.86;;;19.80;100.00
11413;BME280;5762;43.256;26.960;2022-09-27T00:11:06;98619.45;;;19.76;100.00
11413;BME280;5762;43.256;26.960;2022-09-27T00:13:34;98623.56;;;19.69;100.00
11413;BME280;5762;43.256;26.960;2022-09-27T00:16:04;98629.64;;;19.68;100.00
11413;BME280;5762;43.256;26.960;2022-09-27T00:18:33;98628.27;;;19.68;100.00
11413;BME280;5762;43.256;26.960;2022-09-27T00:21:03;98624.72;;;19.64;100.00
11413;BME280;5762;43.256;26.960;2022-09-27T00:23:33;98624.46;;;19.53;100.00
11413;BME280;5762;43.256;26.960;2022-09-27T00:26:02;98624.61;;;19.50;100.00
11413;BME280;5762;43.256;26.960;2022-09-27T00:28:31;98627.34;;;19.47;100.00
11413;BME280;5762;43.256;26.960;2022-09-27T00:31:01;98629.16;;;19.52;100.00
11413;BME280;5762;43.256;26.960;2022-09-27T00:33:31;98627.61;;;19.55;100.00
11413;BME280;5762;43.256;26.960;2022-09-27T00:38:30;98610.64;;;19.35;100.00
11413;BME280;5762;43.256;26.960;2022-09-27T00:40:59;98606.88;;;19.30;100.00
11413;BME280;5762;43.256;26.960;2022-09-27T00:43:41;98592.34;;;19.22;100.00
11413;BME280;5762;43.256;26.960;2022-09-27T00:45:59;98590.92;;;19.15;100.00
11413;BME280;5762;43.256;26.960;2022-09-27T00:48:28;98592.52;;;19.20;100.00
11413;BME280;5762;43.256;26.960;2022-09-27T00:50:59;98587.80;;;19.17;100.00
11413;BME280;5762;43.256;26.960;2022-09-27T00:55:59;98573.23;;;19.02;100.00
11413;BME280;5762;43.256;26.960;2022-09-27T00:58:29;98579.98;;;18.88;100.00
11413;BME280;5762;43.256;26.960;2022-09-27T01:00:57;98589.76;;;18.85;100.00
11413;BME280;5762;43.256;26.960;2022-09-27T01:03:30;98586.78;;;18.81;100.00
11413;BME280;5762;43.256;26.960;2022-09-27T01:05:56;98587.34;;;18.77;100.00
11413;BME280;5762;43.256;26.960;2022-09-27T01:15:57;98602.30;;;18.86;100.00
11413;BME280;5762;43.256;26.960;2022-09-27T01:18:28;98601.83;;;18.77;100.00
11413;BME280;5762;43.256;26.960;2022-09-27T01:30:55;98641.17;;;18.75;100.00
11413;BME280;5762;43.256;26.960;2022-09-27T01:35:56;98643.73;;;18.78;100.00
11413;BME280;5762;43.256;26.960;2022-09-27T01:38:23;98643.53;;;18.77;100.00
11413;BME280;5762;43.256;26.960;2022-09-27T01:43:22;98640.82;;;18.80;100.00
11413;BME280;5762;43.256;26.960;2022-09-27T01:45:53;98632.05;;;18.84;100.00
11413;BME280;5762;43.256;26.960;2022-09-27T01:48:21;98629.91;;;18.87;100.00
11413;BME280;5762;43.256;26.960;2022-09-27T01:55:49;98641.00;;;18.78;100.00
11413;BME280;5762;43.256;26.960;2022-09-27T02:00:49;98640.73;;;18.93;100.00
11413;BME280;5762;43.256;26.960;2022-09-27T02:03:20;98639.95;;;18.93;100.00
11413;BME280;5762;43.256;26.960;2022-09-27T02:05:51;98648.94;;;18.90;100.00
11413;BME280;5762;43.256;26.960;2022-09-27T02:10:47;98648.03;;;18.99;100.00
11413;BME280;5762;43.256;26.960;2022-09-27T02:15:51;98643.30;;;18.96;100.00
11413;BME280;5762;43.256;26.960;2022-09-27T02:18:17;98641.30;;;18.89;100.00
11413;BME280;5762;43.256;26.960;2022-09-27T02:25:50;98646.13;;;18.83;100.00
11413;BME280;5762;43.256;26.960;2022-09-27T02:30:48;98648.49;;;18.84;100.00
11413;BME280;5762;43.256;26.960;2022-09-27T02:35:47;98641.50;;;18.90;100.00
11413;BME280;5762;43.256;26.960;2022-09-27T02:38:21;98644.41;;;18.88;100.00
11413;BME280;5762;43.256;26.960;2022-09-27T02:40:51;98648.84;;;18.79;100.00
11413;BME280;5762;43.256;26.960;2022-09-27T02:43:20;98652.85;;;18.65;100.00
11413;BME280;5762;43.256;26.960;2022-09-27T03:01:03;98684.44;;;18.35;100.00
11413;BME280;5762;43.256;26.960;2022-09-27T03:06:29;98671.12;;;18.33;100.00
11413;BME280;5762;43.256;26.960;2022-09-27T03:09:00;98667.34;;;18.28;100.00
11413;BME280;5762;43.256;26.960;2022-09-27T03:11:29;98646.63;;;18.31;100.00
11413;BME280;5762;43.256;26.960;2022-09-27T03:16:56;98626.26;;;18.28;100.00
11413;BME280;5762;43.256;26.960;2022-09-27T03:19:25;98631.95;;;18.13;100.00
11413;BME280;5762;43.256;26.960;2022-09-27T03:21:54;98635.44;;;18.09;100.00
11413;BME280;5762;43.256;26.960;2022-09-27T03:24:23;98634.90;;;18.14;100.00
11413;BME280;5762;43.256;26.960;2022-09-27T03:26:52;98637.43;;;18.13;100.00
11413;BME280;5762;43.256;26.960;2022-09-27T03:29:21;98637.30;;;17.98;100.00
11413;BME280;5762;43.256;26.960;2022-09-27T03:31:51;98648.25;;;17.98;100.00
11413;BME280;5762;43.256;26.960;2022-09-27T03:37:17;98643.87;;;17.77;100.00
11413;BME280;5762;43.256;26.960;2022-09-27T03:42:45;98659.27;;;17.59;100.00
11413;BME280;5762;43.256;26.960;2022-09-27T03:45:15;98661.47;;;17.63;100.00
11413;BME280;5762;43.256;26.960;2022-09-27T03:47:45;98665.58;;;17.63;100.00
11413;BME280;5762;43.256;26.960;2022-09-27T03:50:14;98667.41;;;17.68;100.00
11413;BME280;5762;43.256;26.960;2022-09-27T03:52:43;98663.89;;;17.68;100.00
11413;BME280;5762;43.256;26.960;2022-09-27T03:55:13;98668.41;;;17.70;100.00
11413;BME280;5762;43.256;26.960;2022-09-27T03:57:43;98664.93;;;17.73;100.00
11413;BME280;5762;43.256;26.960;2022-09-27T04:00:12;98672.09;;;17.68;100.00
11413;BME280;5762;43.256;26.960;2022-09-27T04:02:42;98672.35;;;17.72;100.00
11413;BME280;5762;43.256;26.960;2022-09-27T04:05:12;98672.72;;;17.71;100.00
11413;BME280;5762;43.256;26.960;2022-09-27T04:10:11;98666.83;;;17.69;100.00
11413;BME280;5762;43.256;26.960;2022-09-27T04:12:43;98669.98;;;17.71;100.00
11413;BME280;5762;43.256;26.960;2022-09-27T04:20:11;98669.45;;;17.75;100.00
11413;BME280;5762;43.256;26.960;2022-09-27T04:25:10;98668.27;;;17.89;100.00
11413;BME280;5762;43.256;26.960;2022-09-27T04:30:10;98665.38;;;17.92;100.00
11413;BME280;5762;43.256;26.960;2022-09-27T04:32:41;98649.32;;;17.90;100.00
11413;BME280;5762;43.256;26.960;2022-09-27T04:35:10;98648.20;;;17.95;100.00
11413;BME280;5762;43.256;26.960;2022-09-27T04:37:39;98649.83;;;17.99;100.00
11413;BME280;5762;43.256;26.960;2022-09-27T04:40:08;98654.07;;;18.14;100.00
11413;BME280;5762;43.256;26.960;2022-09-27T04:42:37;98652.48;;;18.29;100.00
11413;BME280;5762;43.256;26.960;2022-09-27T04:45:06;98647.09;;;18.36;100.00
11413;BME280;5762;43.256;26.960;2022-09-27T04:47:36;98648.67;;;18.41;100.00
11413;BME280;5762;43.256;26.960;2022-09-27T04:50:05;98639.49;;;18.43;100.00
11413;BME280;5762;43.256;26.960;2022-09-27T04:52:34;98639.62;;;18.33;100.00
11413;BME280;5762;43.256;26.960;2022-09-27T04:55:03;98631.03;;;18.38;100.00
11413;BME280;5762;43.256;26.960;2022-09-27T04:57:33;98613.78;;;18.14;100.00
11413;BME280;5762;43.256;26.960;2022-09-27T05:00:03;98619.67;;;18.16;100.00
11413;BME280;5762;43.256;26.960;2022-09-27T05:02:32;98617.47;;;18.12;100.00
11413;BME280;5762;43.256;26.960;2022-09-27T05:05:01;98616.64;;;18.25;100.00
11413;BME280;5762;43.256;26.960;2022-09-27T05:07:32;98613.80;;;18.34;100.00
11413;BME280;5762;43.256;26.960;2022-09-27T05:10:01;98620.11;;;18.42;100.00
11413;BME280;5762;43.256;26.960;2022-09-27T05:12:30;98619.02;;;18.50;100.00
11413;BME280;5762;43.256;26.960;2022-09-27T05:14:59;98615.31;;;18.52;100.00
11413;BME280;5762;43.256;26.960;2022-09-27T05:17:30;98613.16;;;18.52;100.00
11413;BME280;5762;43.256;26.960;2022-09-27T05:20:00;98626.99;;;18.46;100.00
11413;BME280;5762;43.256;26.960;2022-09-27T05:22:29;98636.00;;;18.46;100.00
11413;BME280;5762;43.256;26.960;2022-09-27T05:24:58;98624.16;;;18.55;100.00
11413;BME280;5762;43.256;26.960;2022-09-27T05:27:27;98612.13;;;18.63;100.00
11413;BME280;5762;43.256;26.960;2022-09-27T05:29:56;98591.59;;;18.67;100.00
11413;BME280;5762;43.256;26.960;2022-09-27T05:32:26;98583.41;;;18.70;100.00
11413;BME280;5762;43.256;26.960;2022-09-27T05:34:55;98594.80;;;18.80;100.00
11413;BME280;5762;43.256;26.960;2022-09-27T05:37:25;98602.04;;;18.78;100.00
11413;BME280;5762;43.256;26.960;2022-09-27T05:39:54;98599.67;;;18.77;100.00
11413;BME280;5762;43.256;26.960;2022-09-27T05:42:23;98593.08;;;18.85;100.00
11413;BME280;5762;43.256;26.960;2022-09-27T05:44:52;98594.30;;;18.91;100.00
11413;BME280;5762;43.256;26.960;2022-09-27T05:47:21;98600.07;;;19.02;100.00
11413;BME280;5762;43.256;26.960;2022-09-27T05:49:57;98604.59;;;19.08;100.00
11413;BME280;5762;43.256;26.960;2022-09-27T05:52:29;98618.24;;;19.28;100.00
11413;BME280;5762;43.256;26.960;2022-09-27T05:54:57;98608.84;;;19.29;100.00
11413;BME280;5762;43.256;26.960;2022-09-27T05:57:26;98606.48;;;19.28;100.00
11413;BME280;5762;43.256;26.960;2022-09-27T05:59:55;98605.85;;;19.21;100.00
11413;BME280;5762;43.256;26.960;2022-09-27T06:02:25;98590.56;;;19.20;100.00
11413;BME280;5762;43.256;26.960;2022-09-27T06:04:54;98582.53;;;19.21;100.00
11413;BME280;5762;43.256;26.960;2022-09-27T06:07:26;98584.13;;;19.26;100.00
11413;BME280;5762;43.256;26.960;2022-09-27T06:09:55;98590.08;;;19.38;100.00
11413;BME280;5762;43.256;26.960;2022-09-27T06:12:24;98590.16;;;19.53;100.00
11413;BME280;5762;43.256;26.960;2022-09-27T06:14:53;98589.39;;;19.56;100.00
11413;BME280;5762;43.256;26.960;2022-09-27T06:17:22;98572.78;;;19.69;100.00
11413;BME280;5762;43.256;26.960;2022-09-27T06:19:51;98560.28;;;19.89;100.00
11413;BME280;5762;43.256;26.960;2022-09-27T06:22:22;98555.21;;;20.16;100.00
11413;BME280;5762;43.256;26.960;2022-09-27T06:24:50;98540.14;;;20.52;100.00
11413;BME280;5762;43.256;26.960;2022-09-27T06:27:19;98516.77;;;20.66;100.00
11413;BME280;5762;43.256;26.960;2022-09-27T06:29:48;98494.38;;;20.64;100.00
11413;BME280;5762;43.256;26.960;2022-09-27T06:32:18;98490.59;;;20.84;100.00
11413;BME280;5762;43.256;26.960;2022-09-27T06:34:47;98481.95;;;20.82;100.00
11413;BME280;5762;43.256;26.960;2022-09-27T06:37:16;98486.13;;;20.67;100.00
11413;BME280;5762;43.256;26.960;2022-09-27T06:39:45;98488.11;;;20.53;100.00
11413;BME280;5762;43.256;26.960;2022-09-27T06:42:14;98474.57;;;20.36;100.00
11413;BME280;5762;43.256;26.960;2022-09-27T06:44:43;98484.38;;;20.30;100.00
11413;BME280;5762;43.256;26.960;2022-09-27T06:47:13;98499.10;;;20.28;100.00
11413;BME280;5762;43.256;26.960;2022-09-27T06:49:42;98495.36;;;20.16;100.00
11413;BME280;5762;43.256;26.960;2022-09-27T06:52:11;98494.97;;;20.14;100.00
11413;BME280;5762;43.256;26.960;2022-09-27T06:54:40;98509.11;;;20.30;100.00
11413;BME280;5762;43.256;26.960;2022-09-27T06:57:09;98527.38;;;20.35;100.00
11413;BME280;5762;43.256;26.960;2022-09-27T06:59:39;98517.00;;;20.42;100.00
11413;BME280;5762;43.256;26.960;2022-09-27T07:02:08;98516.56;;;20.76;100.00
11413;BME280;5762;43.256;26.960;2022-09-27T07:04:37;98509.25;;;20.88;100.00
11413;BME280;5762;43.256;26.960;2022-09-27T07:07:07;98499.22;;;20.93;100.00
11413;BME280;5762;43.256;26.960;2022-09-27T07:09:36;98501.36;;;21.04;100.00
11413;BME280;5762;43.256;26.960;2022-09-27T07:12:05;98501.23;;;21.39;100.00
11413;BME280;5762;43.256;26.960;2022-09-27T07:14:34;98497.21;;;21.55;100.00
11413;BME280;5762;43.256;26.960;2022-09-27T07:17:03;98504.01;;;22.05;100.00
11413;BME280;5762;43.256;26.960;2022-09-27T07:19:33;98491.61;;;22.28;100.00
11413;BME280;5762;43.256;26.960;2022-09-27T07:22:02;98489.59;;;22.35;100.00
11413;BME280;5762;43.256;26.960;2022-09-27T07:24:31;98472.33;;;22.50;100.00
11413;BME280;5762;43.256;26.960;2022-09-27T07:27:03;98479.38;;;22.73;100.00
11413;BME280;5762;43.256;26.960;2022-09-27T07:29:32;98466.92;;;22.77;100.00
11413;BME280;5762;43.256;26.960;2022-09-27T07:32:01;98467.70;;;22.81;100.00
11413;BME280;5762;43.256;26.960;2022-09-27T07:34:32;98468.11;;;22.80;100.00
11413;BME280;5762;43.256;26.960;2022-09-27T07:37:03;98455.19;;;22.88;100.00
11413;BME280;5762;43.256;26.960;2022-09-27T07:39:32;98437.32;;;22.85;100.00
11413;BME280;5762;43.256;26.960;2022-09-27T07:42:01;98439.19;;;22.91;100.00
11413;BME280;5762;43.256;26.960;2022-09-27T07:44:31;98449.03;;;22.92;100.00
11413;BME280;5762;43.256;26.960;2022-09-27T07:47:00;98449.77;;;22.96;100.00
11413;BME280;5762;43.256;26.960;2022-09-27T07:49:29;98456.36;;;23.06;100.00
11413;BME280;5762;43.256;26.960;2022-09-27T07:51:58;98449.94;;;23.16;100.00
11413;BME280;5762;43.256;26.960;2022-09-27T07:54:27;98438.97;;;23.24;100.00
11413;BME280;5762;43.256;26.960;2022-09-27T07:56:56;98242.82;;;22.09;100.00
11413;BME280;5762;43.256;26.960;2022-09-27T07:59:25;98424.38;;;23.24;100.00
11413;BME280;5762;43.256;26.960;2022-09-27T08:01:54;98422.36;;;23.28;100.00
11413;BME280;5762;43.256;26.960;2022-09-27T08:04:23;98434.48;;;23.53;100.00
11413;BME280;5762;43.256;26.960;2022-09-27T08:06:53;98437.92;;;23.72;100.00
11413;BME280;5762;43.256;26.960;2022-09-27T08:09:22;98443.25;;;23.86;100.00
11413;BME280;5762;43.256;26.960;2022-09-27T08:11:51;98457.66;;;23.97;100.00
11413;BME280;5762;43.256;26.960;2022-09-27T08:14:20;98471.19;;;24.03;100.00
11413;BME280;5762;43.256;26.960;2022-09-27T08:16:50;98462.07;;;24.18;100.00
11413;BME280;5762;43.256;26.960;2022-09-27T08:19:19;98451.56;;;24.33;100.00
11413;BME280;5762;43.256;26.960;2022-09-27T08:21:51;98444.89;;;24.42;100.00
11413;BME280;5762;43.256;26.960;2022-09-27T08:24:21;98444.11;;;24.42;100.00
11413;BME280;5762;43.256;26.960;2022-09-27T08:26:50;98437.48;;;24.59;100.00
11413;BME280;5762;43.256;26.960;2022-09-27T08:29:19;98433.38;;;24.87;100.00
11413;BME280;5762;43.256;26.960;2022-09-27T08:31:49;98429.41;;;25.08;100.00
11413;BME280;5762;43.256;26.960;2022-09-27T08:34:18;98421.31;;;25.17;100.00
11413;BME280;5762;43.256;26.960;2022-09-27T08:36:48;98415.84;;;25.13;100.00
11413;BME280;5762;43.256;26.960;2022-09-27T08:39:17;98417.38;;;25.06;100.00
11413;BME280;5762;43.256;26.960;2022-09-27T08:46:50;98409.83;;;25.34;100.00
11413;BME280;5762;43.256;26.960;2022-09-27T08:49:18;98400.64;;;25.65;100.00
11413;BME280;5762;43.256;26.960;2022-09-27T08:51:47;98393.63;;;25.69;100.00
11413;BME280;5762;43.256;26.960;2022-09-27T08:54:19;98389.73;;;25.83;100.00
11413;BME280;5762;43.256;26.960;2022-09-27T08:56:46;98384.87;;;25.70;100.00
11413;BME280;5762;43.256;26.960;2022-09-27T08:59:16;98387.30;;;25.60;100.00
11413;BME280;5762;43.256;26.960;2022-09-27T09:01:46;98386.78;;;25.65;100.00
11413;BME280;5762;43.256;26.960;2022-09-27T09:04:20;98380.30;;;25.80;100.00
11413;BME280;5762;43.256;26.960;2022-09-27T09:06:48;98378.48;;;25.98;100.00
11413;BME280;5762;43.256;26.960;2022-09-27T09:16:49;98375.24;;;26.08;100.00
11413;BME280;5762;43.256;26.960;2022-09-27T09:24:16;98371.57;;;26.35;100.00
11413;BME280;5762;43.256;26.960;2022-09-27T09:41:44;98353.59;;;26.48;100.00
11413;BME280;5762;43.256;26.960;2022-09-27T09:46:41;98346.20;;;26.70;100.00
11413;BME280;5762;43.256;26.960;2022-09-27T09:51:41;98357.41;;;27.08;100.00
11413;BME280;5762;43.256;26.960;2022-09-27T09:56:43;98338.27;;;27.18;100.00
11413;BME280;5762;43.256;26.960;2022-09-27T09:59:13;98333.66;;;27.32;100.00
11413;BME280;5762;43.256;26.960;2022-09-27T10:01:40;98332.59;;;27.22;100.00
11413;BME280;5762;43.256;26.960;2022-09-27T10:04:19;98327.09;;;27.14;100.00
11413;BME280;5762;43.256;26.960;2022-09-27T10:06:39;98322.19;;;27.05;100.00
11413;BME280;5762;43.256;26.960;2022-09-27T10:09:10;98320.59;;;27.12;100.00
11413;BME280;5762;43.256;26.960;2022-09-27T10:11:39;98315.98;;;27.26;100.00
11413;BME280;5762;43.256;26.960;2022-09-27T10:14:09;98303.98;;;27.17;100.00
11413;BME280;5762;43.256;26.960;2022-09-27T10:16:38;98311.34;;;26.90;100.00
11413;BME280;5762;43.256;26.960;2022-09-27T10:19:07;98303.20;;;27.03;100.00
11413;BME280;5762;43.256;26.960;2022-09-27T10:21:38;98288.65;;;27.12;100.00
11413;BME280;5762;43.256;26.960;2022-09-27T10:24:11;98283.53;;;27.11;100.00
11413;BME280;5762;43.256;26.960;2022-09-27T10:26:41;98282.78;;;26.97;100.00
11413;BME280;5762;43.256;26.960;2022-09-27T10:31:39;98286.59;;;27.08;100.00
11413;BME280;5762;43.256;26.960;2022-09-27T10:34:17;98278.98;;;27.17;100.00
11413;BME280;5762;43.256;26.960;2022-09-27T10:36:43;98268.56;;;27.38;100.00
11413;BME280;5762;43.256;26.960;2022-09-27T10:46:42;98269.59;;;27.06;100.00
11413;BME280;5762;43.256;26.960;2022-09-27T10:51:41;98268.34;;;27.02;100.00
11413;BME280;5762;43.256;26.960;2022-09-27T10:56:41;98256.98;;;27.35;100.00
11413;BME280;5762;43.256;26.960;2022-09-27T10:59:14;98256.27;;;27.44;100.00
11413;BME280;5762;43.256;26.960;2022-09-27T11:01:42;98249.88;;;27.51;100.00
11413;BME280;5762;43.256;26.960;2022-09-27T11:06:39;98249.80;;;27.72;100.00
11413;BME280;5762;43.256;26.960;2022-09-27T11:11:40;98239.74;;;27.70;100.00
11413;BME280;5762;43.256;26.960;2022-09-27T11:16:41;98223.27;;;27.58;100.00
11413;BME280;5762;43.256;26.960;2022-09-27T11:19:15;98212.97;;;27.85;100.00
11413;BME280;5762;43.256;26.960;2022-09-27T11:24:27;98205.88;;;28.28;100.00
11413;BME280;5762;43.256;26.960;2022-09-27T11:39:08;98214.28;;;27.93;100.00
11413;BME280;5762;43.256;26.960;2022-09-27T11:46:34;98225.68;;;27.69;100.00
11413;BME280;5762;43.256;26.960;2022-09-27T11:59:07;98210.34;;;28.25;100.00
11413;BME280;5762;43.256;26.960;2022-09-27T12:14:00;98204.61;;;28.82;100.00
11413;BME280;5762;43.256;26.960;2022-09-27T12:16:28;98209.92;;;28.93;100.00
11413;BME280;5762;43.256;26.960;2022-09-27T12:18:58;98200.06;;;29.15;96.42
11413;BME280;5762;43.256;26.960;2022-09-27T12:21:28;98191.73;;;29.24;96.55
11413;BME280;5762;43.256;26.960;2022-09-27T12:23:57;98182.81;;;29.43;93.85
11413;BME280;5762;43.256;26.960;2022-09-27T12:28:57;98200.31;;;29.44;91.46
11413;BME280;5762;43.256;26.960;2022-09-27T12:31:28;98194.36;;;29.23;95.43
11413;BME280;5762;43.256;26.960;2022-09-27T12:36:27;98189.55;;;28.70;98.70
11413;BME280;5762;43.256;26.960;2022-09-27T12:38:57;98177.94;;;28.67;100.00
11413;BME280;5762;43.256;26.960;2022-09-27T12:41:24;98180.41;;;28.34;99.91
11413;BME280;5762;43.256;26.960;2022-09-27T12:43:54;98182.05;;;28.22;100.00
11413;BME280;5762;43.256;26.960;2022-09-27T12:51:23;98179.29;;;28.27;100.00
11413;BME280;5762;43.256;26.960;2022-09-27T12:56:27;98176.88;;;28.38;100.00
11413;BME280;5762;43.256;26.960;2022-09-27T13:13:55;98184.16;;;29.34;100.00
11413;BME280;5762;43.256;26.960;2022-09-27T13:16:23;98184.83;;;29.43;100.00
11413;BME280;5762;43.256;26.960;2022-09-27T13:23:52;98191.02;;;29.60;98.89
11413;BME280;5762;43.256;26.960;2022-09-27T13:26:41;98189.89;;;29.35;100.00
11413;BME280;5762;43.256;26.960;2022-09-27T13:33:50;98189.84;;;28.67;100.00
11413;BME280;5762;43.256;26.960;2022-09-27T13:36:25;98205.56;;;28.26;100.00
11413;BME280;5762;43.256;26.960;2022-09-27T13:41:20;98207.34;;;28.20;100.00
11413;BME280;5762;43.256;26.960;2022-09-27T13:46:20;98193.71;;;27.91;100.00
11413;BME280;5762;43.256;26.960;2022-09-27T13:48:51;98192.98;;;27.78;100.00
11413;BME280;5762;43.256;26.960;2022-09-27T13:51:23;98184.89;;;27.53;100.00
11413;BME280;5762;43.256;26.960;2022-09-27T14:01:19;98177.43;;;26.98;100.00
11413;BME280;5762;43.256;26.960;2022-09-27T14:06:19;98180.98;;;26.61;100.00
11413;BME280;5762;43.256;26.960;2022-09-27T14:11:20;98169.87;;;26.48;100.00
11413;BME280;5762;43.256;26.960;2022-09-27T14:13:48;98173.25;;;26.48;100.00
11413;BME280;5762;43.256;26.960;2022-09-27T14:16:18;98170.75;;;26.45;100.00
11413;BME280;5762;43.256;26.960;2022-09-27T14:21:20;98175.45;;;25.86;100.00
11413;BME280;5762;43.256;26.960;2022-09-27T14:23:45;98167.77;;;25.77;100.00
11413;BME280;5762;43.256;26.960;2022-09-27T14:28:47;98172.13;;;25.62;100.00
11413;BME280;5762;43.256;26.960;2022-09-27T14:31:17;98173.70;;;25.55;100.00
11413;BME280;5762;43.256;26.960;2022-09-27T14:33:47;98169.20;;;25.53;100.00
11413;BME280;5762;43.256;26.960;2022-09-27T14:41:16;98164.27;;;25.52;100.00
11413;BME280;5762;43.256;26.960;2022-09-27T14:43:45;98153.72;;;25.47;100.00
11413;BME280;5762;43.256;26.960;2022-09-27T14:48:45;98157.58;;;25.29;100.00
11413;BME280;5762;43.256;26.960;2022-09-27T14:53:45;97977.16;;;23.99;100.00
11413;BME280;5762;43.256;26.960;2022-09-27T14:58:44;98162.66;;;25.30;100.00
11413;BME280;5762;43.256;26.960;2022-09-27T15:01:15;98171.34;;;25.16;100.00
11413;BME280;5762;43.256;26.960;2022-09-27T15:03:43;98184.75;;;25.10;100.00
11413;BME280;5762;43.256;26.960;2022-09-27T15:06:14;98193.66;;;25.01;100.00
11413;BME280;5762;43.256;26.960;2022-09-27T15:08:43;98196.00;;;25.02;100.00
11413;BME280;5762;43.256;26.960;2022-09-27T15:11:12;98191.06;;;25.02;100.00
11413;BME280;5762;43.256;26.960;2022-09-27T15:13:42;98194.09;;;24.99;100.00
11413;BME280;5762;43.256;26.960;2022-09-27T15:16:15;98199.53;;;24.95;100.00
11413;BME280;5762;43.256;26.960;2022-09-27T15:18:44;98211.98;;;24.87;100.00
11413;BME280;5762;43.256;26.960;2022-09-27T15:21:14;98219.77;;;24.92;100.00
11413;BME280;5762;43.256;26.960;2022-09-27T15:23:43;98221.42;;;24.97;100.00
11413;BME280;5762;43.256;26.960;2022-09-27T15:26:16;98216.66;;;24.98;100.00
11413;BME280;5762;43.256;26.960;2022-09-27T15:28:43;98211.91;;;24.98;100.00
11413;BME280;5762;43.256;26.960;2022-09-27T15:31:12;98216.81;;;24.83;100.00
11413;BME280;5762;43.256;26.960;2022-09-27T15:33:41;98223.30;;;24.84;100.00
11413;BME280;5762;43.256;26.960;2022-09-27T15:36:11;98219.91;;;24.77;100.00
11413;BME280;5762;43.256;26.960;2022-09-27T15:38:41;98215.74;;;24.68;100.00
11413;BME280;5762;43.256;26.960;2022-09-27T15:41:12;98222.21;;;24.62;100.00
11413;BME280;5762;43.256;26.960;2022-09-27T15:43:42;98229.91;;;24.62;100.00
11413;BME280;5762;43.256;26.960;2022-09-27T15:48:40;98230.19;;;24.60;100.00
11413;BME280;5762;43.256;26.960;2022-09-27T15:53:40;98213.36;;;24.43;100.00
11413;BME280;5762;43.256;26.960;2022-09-27T15:56:10;98196.74;;;24.34;100.00
11413;BME280;5762;43.256;26.960;2022-09-27T15:58:39;98186.75;;;24.21;100.00
11413;BME280;5762;43.256;26.960;2022-09-27T16:01:13;98178.00;;;24.14;100.00
11413;BME280;5762;43.256;26.960;2022-09-27T16:03:38;98179.88;;;24.09;100.00
11413;BME280;5762;43.256;26.960;2022-09-27T16:06:09;98189.41;;;23.96;100.00
11413;BME280;5762;43.256;26.960;2022-09-27T16:08:37;98206.34;;;23.98;100.00
11413;BME280;5762;43.256;26.960;2022-09-27T16:11:08;98216.63;;;23.98;100.00
11413;BME280;5762;43.256;26.960;2022-09-27T16:13:36;98205.88;;;23.92;100.00
11413;BME280;5762;43.256;26.960;2022-09-27T16:16:05;98201.59;;;23.91;100.00
11413;BME280;5762;43.256;26.960;2022-09-27T16:18:35;98206.48;;;23.91;100.00
11413;BME280;5762;43.256;26.960;2022-09-27T16:21:04;98205.99;;;23.96;100.00
11413;BME280;5762;43.256;26.960;2022-09-27T16:23:37;98198.06;;;23.79;100.00
11413;BME280;5762;43.256;26.960;2022-09-27T16:26:06;98199.58;;;23.71;100.00
11413;BME280;5762;43.256;26.960;2022-09-27T16:28:35;98189.24;;;23.76;100.00
11413;BME280;5762;43.256;26.960;2022-09-27T16:31:04;98193.94;;;23.67;100.00
11413;BME280;5762;43.256;26.960;2022-09-27T16:33:34;98198.75;;;23.63;100.00
11413;BME280;5762;43.256;26.960;2022-09-27T16:36:04;98197.91;;;23.66;100.00
11413;BME280;5762;43.256;26.960;2022-09-27T16:38:33;98201.27;;;23.65;100.00
11413;BME280;5762;43.256;26.960;2022-09-27T16:41:02;98205.77;;;23.67;100.00
11413;BME280;5762;43.256;26.960;2022-09-27T16:43:32;98204.39;;;23.67;100.00
11413;BME280;5762;43.256;26.960;2022-09-27T16:46:03;98205.23;;;23.64;100.00
11413;BME280;5762;43.256;26.960;2022-09-27T16:48:32;98211.59;;;23.61;100.00
11413;BME280;5762;43.256;26.960;2022-09-27T16:53:31;98202.35;;;23.60;100.00
11413;BME280;5762;43.256;26.960;2022-09-27T16:56:00;98191.64;;;23.54;100.00
11413;BME280;5762;43.256;26.960;2022-09-27T16:58:29;98185.13;;;23.52;100.00
11413;BME280;5762;43.256;26.960;2022-09-27T17:00:58;98183.56;;;23.51;100.00
11413;BME280;5762;43.256;26.960;2022-09-27T17:03:27;98187.95;;;23.49;100.00
11413;BME280;5762;43.256;26.960;2022-09-27T17:05:59;98182.06;;;23.47;100.00
11413;BME280;5762;43.256;26.960;2022-09-27T17:08:26;98193.23;;;23.39;100.00
11413;BME280;5762;43.256;26.960;2022-09-27T17:10:55;98199.00;;;23.37;100.00
11413;BME280;5762;43.256;26.960;2022-09-27T17:13:25;98191.31;;;23.36;100.00
11413;BME280;5762;43.256;26.960;2022-09-27T17:15:54;98188.44;;;23.44;100.00
11413;BME280;5762;43.256;26.960;2022-09-27T17:18:23;98185.31;;;23.42;100.00
11413;BME280;5762;43.256;26.960;2022-09-27T17:20:52;98183.39;;;23.38;100.00
11413;BME280;5762;43.256;26.960;2022-09-27T17:23:21;98177.69;;;23.26;100.00
11413;BME280;5762;43.256;26.960;2022-09-27T17:25:50;98180.11;;;23.12;100.00
11413;BME280;5762;43.256;26.960;2022-09-27T17:28:20;98213.69;;;22.95;100.00
11413;BME280;5762;43.256;26.960;2022-09-27T17:30:49;98218.61;;;22.84;100.00
11413;BME280;5762;43.256;26.960;2022-09-27T17:33:18;98228.92;;;22.77;100.00
11413;BME280;5762;43.256;26.960;2022-09-27T17:35:56;98251.55;;;22.64;100.00
11413;BME280;5762;43.256;26.960;2022-09-27T17:38:17;98268.30;;;22.50;100.00